sensor_id;sensor_type;location;lat;lon;timestamp;P1;durP1;ratioP1;P2;durP2;ratioP2
11328;SDS011;5719;42.714;23.732;2023-04-25T00:00:25;1.23;;;1.20;;
11328;SDS011;5719;42.714;23.732;2023-04-25T00:02:52;1.25;;;1.25;;
11328;SDS011;5719;42.714;23.732;2023-04-25T00:05:20;5.72;;;1.23;;
11328;SDS011;5719;42.714;23.732;2023-04-25T00:07:48;1.20;;;1.20;;
11328;SDS011;5719;42.714;23.732;2023-04-25T00:10:15;1.00;;;1.00;;
11328;SDS011;5719;42.714;23.732;2023-04-25T00:12:43;3.53;;;1.60;;
11328;SDS011;5719;42.714;23.732;2023-04-25T00:15:11;1.50;;;1.50;;
11328;SDS011;5719;42.714;23.732;2023-04-25T00:17:38;2.08;;;1.60;;
11328;SDS011;5719;42.714;23.732;2023-04-25T00:20:05;1.90;;;1.80;;
11328;SDS011;5719;42.714;23.732;2023-04-25T00:22:34;5.00;;;1.50;;
11328;SDS011;5719;42.714;23.732;2023-04-25T00:25:02;2.55;;;1.50;;
11328;SDS011;5719;42.714;23.732;2023-04-25T00:27:29;2.40;;;1.55;;
11328;SDS011;5719;42.714;23.732;2023-04-25T00:29:58;1.67;;;1.58;;
11328;SDS011;5719;42.714;23.732;2023-04-25T00:32:25;2.75;;;1.75;;
11328;SDS011;5719;42.714;23.732;2023-04-25T00:34:51;1.40;;;1.30;;
11328;SDS011;5719;42.714;23.732;2023-04-25T00:37:18;1.17;;;1.17;;
11328;SDS011;5719;42.714;23.732;2023-04-25T00:39:45;1.50;;;1.40;;
11328;SDS011;5719;42.714;23.732;2023-04-25T00:42:12;1.48;;;1.38;;
11328;SDS011;5719;42.714;23.732;2023-04-25T00:44:40;1.88;;;1.25;;
11328;SDS011;5719;42.714;23.732;2023-04-25T00:47:08;1.60;;;1.50;;
11328;SDS011;5719;42.714;23.732;2023-04-25T00:49:37;1.73;;;1.60;;
11328;SDS011;5719;42.714;23.732;2023-04-25T00:52:04;1.73;;;1.60;;
11328;SDS011;5719;42.714;23.732;2023-04-25T00:54:32;1.65;;;1.40;;
11328;SDS011;5719;42.714;23.732;2023-04-25T00:56:59;1.90;;;1.80;;
11328;SDS011;5719;42.714;23.732;2023-04-25T00:59:27;1.65;;;1.55;;
11328;SDS011;5719;42.714;23.732;2023-04-25T01:01:55;1.30;;;1.20;;
11328;SDS011;5719;42.714;23.732;2023-04-25T01:04:23;1.52;;;1.42;;
11328;SDS011;5719;42.714;23.732;2023-04-25T01:06:50;2.85;;;1.58;;
11328;SDS011;5719;42.714;23.732;2023-04-25T01:09:18;1.33;;;1.30;;
11328;SDS011;5719;42.714;23.732;2023-04-25T01:11:45;2.25;;;1.45;;
11328;SDS011;5719;42.714;23.732;2023-04-25T01:14:12;1.25;;;1.15;;
11328;SDS011;5719;42.714;23.732;2023-04-25T01:16:39;1.95;;;1.67;;
11328;SDS011;5719;42.714;23.732;2023-04-25T01:19:07;1.40;;;1.40;;
11328;SDS011;5719;42.714;23.732;2023-04-25T01:21:38;1.77;;;1.60;;
11328;SDS011;5719;42.714;23.732;2023-04-25T01:24:05;2.28;;;1.80;;
11328;SDS011;5719;42.714;23.732;2023-04-25T01:26:33;2.35;;;1.63;;
11328;SDS011;5719;42.714;23.732;2023-04-25T01:29:01;1.80;;;1.70;;
11328;SDS011;5719;42.714;23.732;2023-04-25T01:31:29;4.10;;;1.60;;
11328;SDS011;5719;42.714;23.732;2023-04-25T01:33:57;3.80;;;1.67;;
11328;SDS011;5719;42.714;23.732;2023-04-25T01:36:24;1.83;;;1.73;;
11328;SDS011;5719;42.714;23.732;2023-04-25T01:38:53;1.75;;;1.63;;
11328;SDS011;5719;42.714;23.732;2023-04-25T01:41:21;2.20;;;1.50;;
11328;SDS011;5719;42.714;23.732;2023-04-25T01:43:49;2.00;;;1.90;;
11328;SDS011;5719;42.714;23.732;2023-04-25T01:46:16;3.17;;;2.20;;
11328;SDS011;5719;42.714;23.732;2023-04-25T01:48:43;2.58;;;2.10;;
11328;SDS011;5719;42.714;23.732;2023-04-25T01:51:10;2.28;;;2.08;;
11328;SDS011;5719;42.714;23.732;2023-04-25T01:53:37;2.00;;;1.90;;
11328;SDS011;5719;42.714;23.732;2023-04-25T01:56:06;4.05;;;1.80;;
11328;SDS011;5719;42.714;23.732;2023-04-25T01:58:33;2.50;;;1.70;;
11328;SDS011;5719;42.714;23.732;2023-04-25T02:01:00;1.70;;;1.58;;
11328;SDS011;5719;42.714;23.732;2023-04-25T02:03:27;2.45;;;1.48;;
11328;SDS011;5719;42.714;23.732;2023-04-25T02:05:54;1.60;;;1.50;;
11328;SDS011;5719;42.714;23.732;2023-04-25T02:08:20;1.60;;;1.50;;
11328;SDS011;5719;42.714;23.732;2023-04-25T02:10:47;1.88;;;1.77;;
11328;SDS011;5719;42.714;23.732;2023-04-25T02:13:16;1.70;;;1.60;;
11328;SDS011;5719;42.714;23.732;2023-04-25T02:15:43;1.88;;;1.70;;
11328;SDS011;5719;42.714;23.732;2023-04-25T02:18:09;5.10;;;1.70;;
11328;SDS011;5719;42.714;23.732;2023-04-25T02:20:36;1.95;;;1.70;;
11328;SDS011;5719;42.714;23.732;2023-04-25T02:23:03;1.70;;;1.60;;
11328;SDS011;5719;42.714;23.732;2023-04-25T02:25:30;1.60;;;1.50;;
11328;SDS011;5719;42.714;23.732;2023-04-25T02:27:57;1.50;;;1.40;;
11328;SDS011;5719;42.714;23.732;2023-04-25T02:30:25;2.97;;;1.70;;
11328;SDS011;5719;42.714;23.732;2023-04-25T02:32:52;3.05;;;1.80;;
11328;SDS011;5719;42.714;23.732;2023-04-25T02:35:19;2.75;;;1.60;;
11328;SDS011;5719;42.714;23.732;2023-04-25T02:37:46;1.50;;;1.40;;
11328;SDS011;5719;42.714;23.732;2023-04-25T02:40:13;2.40;;;2.20;;
11328;SDS011;5719;42.714;23.732;2023-04-25T02:42:40;2.00;;;1.90;;
11328;SDS011;5719;42.714;23.732;2023-04-25T02:45:07;2.63;;;2.45;;
11328;SDS011;5719;42.714;23.732;2023-04-25T02:47:36;2.60;;;2.40;;
11328;SDS011;5719;42.714;23.732;2023-04-25T02:50:03;2.25;;;2.05;;
11328;SDS011;5719;42.714;23.732;2023-04-25T02:52:31;2.20;;;2.10;;
11328;SDS011;5719;42.714;23.732;2023-04-25T02:54:58;2.53;;;1.95;;
11328;SDS011;5719;42.714;23.732;2023-04-25T02:57:25;4.20;;;2.40;;
11328;SDS011;5719;42.714;23.732;2023-04-25T02:59:52;2.50;;;2.30;;
11328;SDS011;5719;42.714;23.732;2023-04-25T03:02:18;3.03;;;2.22;;
11328;SDS011;5719;42.714;23.732;2023-04-25T03:04:47;2.17;;;2.08;;
11328;SDS011;5719;42.714;23.732;2023-04-25T03:07:14;2.38;;;2.20;;
11328;SDS011;5719;42.714;23.732;2023-04-25T03:09:41;2.92;;;2.67;;
11328;SDS011;5719;42.714;23.732;2023-04-25T03:12:07;2.90;;;2.70;;
11328;SDS011;5719;42.714;23.732;2023-04-25T03:14:35;2.40;;;2.30;;
11328;SDS011;5719;42.714;23.732;2023-04-25T03:17:02;2.25;;;2.08;;
11328;SDS011;5719;42.714;23.732;2023-04-25T03:19:29;2.50;;;2.30;;
11328;SDS011;5719;42.714;23.732;2023-04-25T03:21:57;2.22;;;2.13;;
11328;SDS011;5719;42.714;23.732;2023-04-25T03:24:24;2.35;;;2.15;;
11328;SDS011;5719;42.714;23.732;2023-04-25T03:26:52;2.55;;;2.17;;
11328;SDS011;5719;42.714;23.732;2023-04-25T03:29:19;2.75;;;2.53;;
11328;SDS011;5719;42.714;23.732;2023-04-25T03:31:49;4.75;;;2.17;;
11328;SDS011;5719;42.714;23.732;2023-04-25T03:34:16;2.40;;;2.20;;
11328;SDS011;5719;42.714;23.732;2023-04-25T03:36:43;2.95;;;2.63;;
11328;SDS011;5719;42.714;23.732;2023-04-25T03:39:11;2.70;;;2.58;;
11328;SDS011;5719;42.714;23.732;2023-04-25T03:41:38;3.60;;;2.78;;
11328;SDS011;5719;42.714;23.732;2023-04-25T03:44:05;3.97;;;2.95;;
11328;SDS011;5719;42.714;23.732;2023-04-25T03:46:31;3.13;;;2.90;;
11328;SDS011;5719;42.714;23.732;2023-04-25T03:48:58;3.75;;;3.38;;
11328;SDS011;5719;42.714;23.732;2023-04-25T03:51:25;4.35;;;3.08;;
11328;SDS011;5719;42.714;23.732;2023-04-25T03:53:52;3.25;;;2.97;;
11328;SDS011;5719;42.714;23.732;2023-04-25T03:56:20;3.47;;;3.20;;
11328;SDS011;5719;42.714;23.732;2023-04-25T03:58:49;6.55;;;3.05;;
11328;SDS011;5719;42.714;23.732;2023-04-25T04:01:16;3.10;;;2.88;;
11328;SDS011;5719;42.714;23.732;2023-04-25T04:03:43;4.57;;;3.10;;
11328;SDS011;5719;42.714;23.732;2023-04-25T04:06:10;3.67;;;2.72;;
11328;SDS011;5719;42.714;23.732;2023-04-25T04:08:38;5.68;;;3.13;;
11328;SDS011;5719;42.714;23.732;2023-04-25T04:11:05;5.10;;;3.30;;
11328;SDS011;5719;42.714;23.732;2023-04-25T04:13:33;4.85;;;2.75;;
11328;SDS011;5719;42.714;23.732;2023-04-25T04:16:00;3.40;;;3.10;;
11328;SDS011;5719;42.714;23.732;2023-04-25T04:18:27;9.57;;;3.00;;
11328;SDS011;5719;42.714;23.732;2023-04-25T04:20:54;5.32;;;2.83;;
11328;SDS011;5719;42.714;23.732;2023-04-25T04:23:20;6.25;;;3.63;;
11328;SDS011;5719;42.714;23.732;2023-04-25T04:25:47;3.63;;;3.33;;
11328;SDS011;5719;42.714;23.732;2023-04-25T04:28:14;4.03;;;3.67;;
11328;SDS011;5719;42.714;23.732;2023-04-25T04:30:44;2.90;;;2.70;;
11328;SDS011;5719;42.714;23.732;2023-04-25T04:33:12;3.10;;;2.90;;
11328;SDS011;5719;42.714;23.732;2023-04-25T04:35:40;3.47;;;3.28;;
11328;SDS011;5719;42.714;23.732;2023-04-25T04:38:08;6.70;;;3.47;;
11328;SDS011;5719;42.714;23.732;2023-04-25T04:40:35;5.88;;;3.42;;
11328;SDS011;5719;42.714;23.732;2023-04-25T04:43:02;4.20;;;3.90;;
11328;SDS011;5719;42.714;23.732;2023-04-25T04:45:29;3.85;;;2.97;;
11328;SDS011;5719;42.714;23.732;2023-04-25T04:47:57;4.18;;;3.05;;
11328;SDS011;5719;42.714;23.732;2023-04-25T04:50:24;2.97;;;2.65;;
11328;SDS011;5719;42.714;23.732;2023-04-25T04:52:52;2.95;;;2.70;;
11328;SDS011;5719;42.714;23.732;2023-04-25T04:55:20;2.70;;;2.50;;
11328;SDS011;5719;42.714;23.732;2023-04-25T04:57:47;5.13;;;2.50;;
11328;SDS011;5719;42.714;23.732;2023-04-25T05:00:14;2.83;;;2.63;;
11328;SDS011;5719;42.714;23.732;2023-04-25T05:02:41;4.57;;;2.92;;
11328;SDS011;5719;42.714;23.732;2023-04-25T05:05:09;2.78;;;2.58;;
11328;SDS011;5719;42.714;23.732;2023-04-25T05:07:36;2.50;;;2.40;;
11328;SDS011;5719;42.714;23.732;2023-04-25T05:10:04;3.13;;;2.83;;
11328;SDS011;5719;42.714;23.732;2023-04-25T05:12:31;2.40;;;2.20;;
11328;SDS011;5719;42.714;23.732;2023-04-25T05:14:58;3.08;;;2.78;;
11328;SDS011;5719;42.714;23.732;2023-04-25T05:17:25;5.35;;;2.67;;
11328;SDS011;5719;42.714;23.732;2023-04-25T05:19:52;3.70;;;2.60;;
11328;SDS011;5719;42.714;23.732;2023-04-25T05:22:20;3.03;;;2.83;;
11328;SDS011;5719;42.714;23.732;2023-04-25T05:24:47;2.95;;;2.75;;
11328;SDS011;5719;42.714;23.732;2023-04-25T05:27:16;3.67;;;2.63;;
11328;SDS011;5719;42.714;23.732;2023-04-25T05:29:44;2.97;;;2.83;;
11328;SDS011;5719;42.714;23.732;2023-04-25T05:32:11;2.83;;;2.40;;
11328;SDS011;5719;42.714;23.732;2023-04-25T05:34:38;2.83;;;2.63;;
11328;SDS011;5719;42.714;23.732;2023-04-25T05:37:05;2.53;;;2.33;;
11328;SDS011;5719;42.714;23.732;2023-04-25T05:39:33;2.72;;;2.50;;
11328;SDS011;5719;42.714;23.732;2023-04-25T05:42:00;4.13;;;2.88;;
11328;SDS011;5719;42.714;23.732;2023-04-25T05:44:28;3.28;;;2.60;;
11328;SDS011;5719;42.714;23.732;2023-04-25T05:46:56;3.42;;;2.45;;
11328;SDS011;5719;42.714;23.732;2023-04-25T05:49:23;7.07;;;2.90;;
11328;SDS011;5719;42.714;23.732;2023-04-25T05:51:50;4.22;;;2.90;;
11328;SDS011;5719;42.714;23.732;2023-04-25T05:54:17;3.88;;;3.35;;
11328;SDS011;5719;42.714;23.732;2023-04-25T05:56:45;5.40;;;3.30;;
11328;SDS011;5719;42.714;23.732;2023-04-25T05:59:12;4.80;;;3.50;;
11328;SDS011;5719;42.714;23.732;2023-04-25T06:01:39;3.45;;;3.15;;
11328;SDS011;5719;42.714;23.732;2023-04-25T06:04:06;4.85;;;3.70;;
11328;SDS011;5719;42.714;23.732;2023-04-25T06:06:33;7.38;;;3.60;;
11328;SDS011;5719;42.714;23.732;2023-04-25T06:09:00;3.95;;;3.38;;
11328;SDS011;5719;42.714;23.732;2023-04-25T06:11:27;4.38;;;3.65;;
11328;SDS011;5719;42.714;23.732;2023-04-25T06:13:55;4.68;;;3.60;;
11328;SDS011;5719;42.714;23.732;2023-04-25T06:16:22;3.40;;;3.20;;
11328;SDS011;5719;42.714;23.732;2023-04-25T06:18:50;7.20;;;3.38;;
11328;SDS011;5719;42.714;23.732;2023-04-25T06:21:18;5.18;;;3.90;;
11328;SDS011;5719;42.714;23.732;2023-04-25T06:23:45;3.65;;;3.33;;
11328;SDS011;5719;42.714;23.732;2023-04-25T06:26:12;4.75;;;3.25;;
11328;SDS011;5719;42.714;23.732;2023-04-25T06:28:39;3.80;;;3.20;;
11328;SDS011;5719;42.714;23.732;2023-04-25T06:31:08;3.45;;;3.25;;
11328;SDS011;5719;42.714;23.732;2023-04-25T06:33:35;3.63;;;3.30;;
11328;SDS011;5719;42.714;23.732;2023-04-25T06:36:02;3.05;;;2.90;;
11328;SDS011;5719;42.714;23.732;2023-04-25T06:38:29;3.50;;;3.20;;
11328;SDS011;5719;42.714;23.732;2023-04-25T06:40:56;4.72;;;3.20;;
11328;SDS011;5719;42.714;23.732;2023-04-25T06:43:23;3.50;;;3.20;;
11328;SDS011;5719;42.714;23.732;2023-04-25T06:45:50;3.20;;;3.00;;
11328;SDS011;5719;42.714;23.732;2023-04-25T06:48:18;4.45;;;2.90;;
11328;SDS011;5719;42.714;23.732;2023-04-25T06:50:45;8.57;;;3.50;;
11328;SDS011;5719;42.714;23.732;2023-04-25T06:53:12;3.25;;;3.05;;
11328;SDS011;5719;42.714;23.732;2023-04-25T06:55:39;4.13;;;3.20;;
11328;SDS011;5719;42.714;23.732;2023-04-25T06:58:06;3.25;;;2.95;;
11328;SDS011;5719;42.714;23.732;2023-04-25T07:00:33;4.82;;;2.80;;
11328;SDS011;5719;42.714;23.732;2023-04-25T07:03:00;2.90;;;2.70;;
11328;SDS011;5719;42.714;23.732;2023-04-25T07:05:28;3.53;;;2.90;;
11328;SDS011;5719;42.714;23.732;2023-04-25T07:07:55;3.10;;;2.90;;
11328;SDS011;5719;42.714;23.732;2023-04-25T07:10:22;3.10;;;2.58;;
11328;SDS011;5719;42.714;23.732;2023-04-25T07:12:50;2.75;;;2.55;;
11328;SDS011;5719;42.714;23.732;2023-04-25T07:15:17;3.38;;;2.78;;
11328;SDS011;5719;42.714;23.732;2023-04-25T07:17:44;2.63;;;2.53;;
11328;SDS011;5719;42.714;23.732;2023-04-25T07:20:11;3.88;;;2.50;;
11328;SDS011;5719;42.714;23.732;2023-04-25T07:22:39;2.60;;;2.40;;
11328;SDS011;5719;42.714;23.732;2023-04-25T07:25:06;2.92;;;2.42;;
11328;SDS011;5719;42.714;23.732;2023-04-25T07:27:34;3.13;;;2.35;;
11328;SDS011;5719;42.714;23.732;2023-04-25T07:30:01;3.08;;;2.60;;
11328;SDS011;5719;42.714;23.732;2023-04-25T07:32:28;3.80;;;2.83;;
11328;SDS011;5719;42.714;23.732;2023-04-25T07:34:56;3.10;;;2.70;;
11328;SDS011;5719;42.714;23.732;2023-04-25T07:37:23;3.97;;;2.88;;
11328;SDS011;5719;42.714;23.732;2023-04-25T07:39:51;3.10;;;2.90;;
11328;SDS011;5719;42.714;23.732;2023-04-25T07:42:18;3.10;;;2.80;;
11328;SDS011;5719;42.714;23.732;2023-04-25T07:44:46;3.10;;;2.83;;
11328;SDS011;5719;42.714;23.732;2023-04-25T07:47:13;3.10;;;2.90;;
11328;SDS011;5719;42.714;23.732;2023-04-25T07:49:40;2.85;;;2.65;;
11328;SDS011;5719;42.714;23.732;2023-04-25T07:52:10;2.75;;;2.45;;
11328;SDS011;5719;42.714;23.732;2023-04-25T07:54:37;2.97;;;2.78;;
11328;SDS011;5719;42.714;23.732;2023-04-25T07:57:05;2.38;;;2.17;;
11328;SDS011;5719;42.714;23.732;2023-04-25T07:59:32;2.55;;;2.35;;
11328;SDS011;5719;42.714;23.732;2023-04-25T08:01:59;2.30;;;2.20;;
11328;SDS011;5719;42.714;23.732;2023-04-25T08:04:27;2.60;;;2.38;;
11328;SDS011;5719;42.714;23.732;2023-04-25T08:06:54;2.38;;;2.25;;
11328;SDS011;5719;42.714;23.732;2023-04-25T08:09:21;2.25;;;2.08;;
11328;SDS011;5719;42.714;23.732;2023-04-25T08:11:48;2.30;;;2.20;;
11328;SDS011;5719;42.714;23.732;2023-04-25T08:14:17;2.40;;;2.20;;
11328;SDS011;5719;42.714;23.732;2023-04-25T08:16:43;4.55;;;2.50;;
11328;SDS011;5719;42.714;23.732;2023-04-25T08:19:10;2.60;;;2.50;;
11328;SDS011;5719;42.714;23.732;2023-04-25T08:21:37;5.13;;;2.50;;
11328;SDS011;5719;42.714;23.732;2023-04-25T08:24:04;2.63;;;2.42;;
11328;SDS011;5719;42.714;23.732;2023-04-25T08:26:31;3.63;;;2.95;;
11328;SDS011;5719;42.714;23.732;2023-04-25T08:28:59;3.00;;;2.72;;
11328;SDS011;5719;42.714;23.732;2023-04-25T08:31:27;2.00;;;1.80;;
11328;SDS011;5719;42.714;23.732;2023-04-25T08:33:54;6.13;;;2.30;;
11328;SDS011;5719;42.714;23.732;2023-04-25T08:36:21;2.90;;;1.90;;
11328;SDS011;5719;42.714;23.732;2023-04-25T08:38:49;2.28;;;1.85;;
11328;SDS011;5719;42.714;23.732;2023-04-25T08:41:16;2.10;;;1.90;;
11328;SDS011;5719;42.714;23.732;2023-04-25T08:43:44;2.72;;;2.05;;
11328;SDS011;5719;42.714;23.732;2023-04-25T08:46:11;2.28;;;2.08;;
11328;SDS011;5719;42.714;23.732;2023-04-25T08:48:41;3.42;;;2.45;;
11328;SDS011;5719;42.714;23.732;2023-04-25T08:51:12;2.67;;;1.92;;
11328;SDS011;5719;42.714;23.732;2023-04-25T08:53:47;2.17;;;1.98;;
11328;SDS011;5719;42.714;23.732;2023-04-25T08:56:17;2.05;;;1.70;;
11328;SDS011;5719;42.714;23.732;2023-04-25T08:58:47;2.67;;;1.73;;
11328;SDS011;5719;42.714;23.732;2023-04-25T09:01:14;1.90;;;1.80;;
11328;SDS011;5719;42.714;23.732;2023-04-25T09:03:43;2.60;;;1.88;;
11328;SDS011;5719;42.714;23.732;2023-04-25T09:06:12;2.65;;;1.90;;
11328;SDS011;5719;42.714;23.732;2023-04-25T09:08:41;3.25;;;1.90;;
11328;SDS011;5719;42.714;23.732;2023-04-25T09:11:08;2.50;;;2.03;;
11328;SDS011;5719;42.714;23.732;2023-04-25T09:13:35;5.28;;;2.20;;
11328;SDS011;5719;42.714;23.732;2023-04-25T09:16:02;3.00;;;2.30;;
11328;SDS011;5719;42.714;23.732;2023-04-25T09:18:29;2.67;;;1.58;;
11328;SDS011;5719;42.714;23.732;2023-04-25T09:21:05;3.35;;;2.05;;
11328;SDS011;5719;42.714;23.732;2023-04-25T09:23:38;5.78;;;2.00;;
11328;SDS011;5719;42.714;23.732;2023-04-25T09:28:33;3.00;;;1.40;;
11328;SDS011;5719;42.714;23.732;2023-04-25T09:31:01;1.67;;;1.30;;
11328;SDS011;5719;42.714;23.732;2023-04-25T09:33:28;1.30;;;1.20;;
11328;SDS011;5719;42.714;23.732;2023-04-25T09:36:02;1.73;;;1.10;;
11328;SDS011;5719;42.714;23.732;2023-04-25T09:38:30;3.80;;;1.63;;
11328;SDS011;5719;42.714;23.732;2023-04-25T09:40:58;2.30;;;1.20;;
11328;SDS011;5719;42.714;23.732;2023-04-25T09:43:26;1.65;;;1.02;;
11328;SDS011;5719;42.714;23.732;2023-04-25T09:45:54;1.30;;;1.20;;
11328;SDS011;5719;42.714;23.732;2023-04-25T09:48:25;1.92;;;1.30;;
11328;SDS011;5719;42.714;23.732;2023-04-25T09:51:08;1.67;;;1.58;;
11328;SDS011;5719;42.714;23.732;2023-04-25T09:53:36;8.55;;;1.13;;
11328;SDS011;5719;42.714;23.732;2023-04-25T09:56:04;0.98;;;0.70;;
11328;SDS011;5719;42.714;23.732;2023-04-25T09:58:33;0.63;;;0.63;;
11328;SDS011;5719;42.714;23.732;2023-04-25T10:01:01;2.80;;;1.00;;
11328;SDS011;5719;42.714;23.732;2023-04-25T10:03:29;6.90;;;1.75;;
11328;SDS011;5719;42.714;23.732;2023-04-25T10:05:57;0.65;;;0.65;;
11328;SDS011;5719;42.714;23.732;2023-04-25T10:08:28;1.75;;;0.60;;
11328;SDS011;5719;42.714;23.732;2023-04-25T10:10:59;0.47;;;0.47;;
11328;SDS011;5719;42.714;23.732;2023-04-25T10:13:28;1.85;;;0.50;;
11328;SDS011;5719;42.714;23.732;2023-04-25T10:15:56;1.50;;;0.57;;
11328;SDS011;5719;42.714;23.732;2023-04-25T10:18:24;1.05;;;0.70;;
11328;SDS011;5719;42.714;23.732;2023-04-25T10:20:52;1.20;;;0.75;;
11328;SDS011;5719;42.714;23.732;2023-04-25T10:23:21;1.58;;;0.50;;
11328;SDS011;5719;42.714;23.732;2023-04-25T10:25:50;0.40;;;0.40;;
11328;SDS011;5719;42.714;23.732;2023-04-25T10:28:19;0.30;;;0.30;;
11328;SDS011;5719;42.714;23.732;2023-04-25T10:31:00;1.38;;;0.55;;
11328;SDS011;5719;42.714;23.732;2023-04-25T10:33:35;2.05;;;0.50;;
11328;SDS011;5719;42.714;23.732;2023-04-25T10:36:10;0.88;;;0.50;;
11328;SDS011;5719;42.714;23.732;2023-04-25T10:38:38;0.63;;;0.60;;
11328;SDS011;5719;42.714;23.732;2023-04-25T10:41:07;3.10;;;0.80;;
11328;SDS011;5719;42.714;23.732;2023-04-25T10:43:36;1.45;;;0.70;;
11328;SDS011;5719;42.714;23.732;2023-04-25T10:46:14;2.38;;;1.13;;
11328;SDS011;5719;42.714;23.732;2023-04-25T10:48:46;1.15;;;1.02;;
11328;SDS011;5719;42.714;23.732;2023-04-25T10:51:18;2.58;;;1.02;;
11328;SDS011;5719;42.714;23.732;2023-04-25T10:53:56;1.00;;;1.00;;
11328;SDS011;5719;42.714;23.732;2023-04-25T10:56:26;4.35;;;1.40;;
11328;SDS011;5719;42.714;23.732;2023-04-25T10:59:05;1.13;;;1.13;;
11328;SDS011;5719;42.714;23.732;2023-04-25T11:01:36;2.05;;;1.52;;
11328;SDS011;5719;42.714;23.732;2023-04-25T11:04:05;1.40;;;1.35;;
11328;SDS011;5719;42.714;23.732;2023-04-25T11:06:35;2.28;;;1.65;;
11328;SDS011;5719;42.714;23.732;2023-04-25T11:09:10;3.28;;;1.55;;
11328;SDS011;5719;42.714;23.732;2023-04-25T11:11:40;3.22;;;1.73;;
11328;SDS011;5719;42.714;23.732;2023-04-25T11:14:07;2.67;;;1.48;;
11328;SDS011;5719;42.714;23.732;2023-04-25T11:16:34;5.13;;;1.77;;
11328;SDS011;5719;42.714;23.732;2023-04-25T11:19:01;1.88;;;1.77;;
11328;SDS011;5719;42.714;23.732;2023-04-25T11:21:30;2.90;;;2.20;;
11328;SDS011;5719;42.714;23.732;2023-04-25T11:23:58;4.00;;;1.92;;
11328;SDS011;5719;42.714;23.732;2023-04-25T11:26:26;3.17;;;1.90;;
11328;SDS011;5719;42.714;23.732;2023-04-25T11:28:58;1.48;;;1.38;;
11328;SDS011;5719;42.714;23.732;2023-04-25T11:31:25;1.08;;;1.00;;
11328;SDS011;5719;42.714;23.732;2023-04-25T11:33:53;2.13;;;1.10;;
11328;SDS011;5719;42.714;23.732;2023-04-25T11:36:20;1.60;;;0.90;;
11328;SDS011;5719;42.714;23.732;2023-04-25T11:38:48;0.63;;;0.63;;
11328;SDS011;5719;42.714;23.732;2023-04-25T11:41:16;1.15;;;0.73;;
11328;SDS011;5719;42.714;23.732;2023-04-25T11:43:44;1.73;;;0.80;;
11328;SDS011;5719;42.714;23.732;2023-04-25T11:46:12;4.03;;;1.33;;
11328;SDS011;5719;42.714;23.732;2023-04-25T11:48:39;2.95;;;0.90;;
11328;SDS011;5719;42.714;23.732;2023-04-25T11:51:06;3.33;;;0.68;;
11328;SDS011;5719;42.714;23.732;2023-04-25T11:53:34;2.83;;;0.70;;
11328;SDS011;5719;42.714;23.732;2023-04-25T11:56:01;0.75;;;0.75;;
11328;SDS011;5719;42.714;23.732;2023-04-25T11:58:28;2.10;;;0.50;;
11328;SDS011;5719;42.714;23.732;2023-04-25T12:00:55;3.83;;;0.77;;
11328;SDS011;5719;42.714;23.732;2023-04-25T12:03:25;1.45;;;0.82;;
11328;SDS011;5719;42.714;23.732;2023-04-25T12:06:01;0.75;;;0.55;;
11328;SDS011;5719;42.714;23.732;2023-04-25T12:08:30;1.23;;;0.73;;
11328;SDS011;5719;42.714;23.732;2023-04-25T12:10:57;1.88;;;0.60;;
11328;SDS011;5719;42.714;23.732;2023-04-25T12:13:25;1.27;;;0.70;;
11328;SDS011;5719;42.714;23.732;2023-04-25T12:15:53;3.13;;;0.50;;
11328;SDS011;5719;42.714;23.732;2023-04-25T12:18:22;3.15;;;0.60;;
11328;SDS011;5719;42.714;23.732;2023-04-25T12:20:53;1.88;;;0.40;;
11328;SDS011;5719;42.714;23.732;2023-04-25T12:23:25;1.00;;;0.45;;
11328;SDS011;5719;42.714;23.732;2023-04-25T12:25:53;0.40;;;0.40;;
11328;SDS011;5719;42.714;23.732;2023-04-25T12:28:20;1.05;;;0.70;;
11328;SDS011;5719;42.714;23.732;2023-04-25T12:30:53;0.60;;;0.60;;
11328;SDS011;5719;42.714;23.732;2023-04-25T12:33:21;1.75;;;0.57;;
11328;SDS011;5719;42.714;23.732;2023-04-25T12:35:48;0.50;;;0.50;;
11328;SDS011;5719;42.714;23.732;2023-04-25T12:38:21;0.47;;;0.40;;
11328;SDS011;5719;42.714;23.732;2023-04-25T12:40:49;0.60;;;0.60;;
11328;SDS011;5719;42.714;23.732;2023-04-25T12:43:16;1.23;;;0.77;;
11328;SDS011;5719;42.714;23.732;2023-04-25T12:45:43;0.77;;;0.70;;
11328;SDS011;5719;42.714;23.732;2023-04-25T12:48:10;0.85;;;0.80;;
11328;SDS011;5719;42.714;23.732;2023-04-25T12:50:37;0.82;;;0.73;;
11328;SDS011;5719;42.714;23.732;2023-04-25T12:53:04;0.80;;;0.80;;
11328;SDS011;5719;42.714;23.732;2023-04-25T12:55:33;1.00;;;0.90;;
11328;SDS011;5719;42.714;23.732;2023-04-25T12:58:00;0.90;;;0.90;;
11328;SDS011;5719;42.714;23.732;2023-04-25T13:00:28;1.55;;;1.00;;
11328;SDS011;5719;42.714;23.732;2023-04-25T13:02:55;0.90;;;0.90;;
11328;SDS011;5719;42.714;23.732;2023-04-25T13:05:23;3.13;;;0.90;;
11328;SDS011;5719;42.714;23.732;2023-04-25T13:07:49;0.70;;;0.70;;
11328;SDS011;5719;42.714;23.732;2023-04-25T13:10:17;2.65;;;0.80;;
11328;SDS011;5719;42.714;23.732;2023-04-25T13:12:45;2.05;;;0.93;;
11328;SDS011;5719;42.714;23.732;2023-04-25T13:15:12;1.55;;;1.00;;
11328;SDS011;5719;42.714;23.732;2023-04-25T13:17:40;2.22;;;1.15;;
11328;SDS011;5719;42.714;23.732;2023-04-25T13:20:08;4.78;;;1.10;;
11328;SDS011;5719;42.714;23.732;2023-04-25T13:22:37;2.13;;;1.13;;
11328;SDS011;5719;42.714;23.732;2023-04-25T13:25:04;2.15;;;1.10;;
11328;SDS011;5719;42.714;23.732;2023-04-25T13:27:32;1.38;;;0.90;;
11328;SDS011;5719;42.714;23.732;2023-04-25T13:30:02;2.25;;;1.63;;
11328;SDS011;5719;42.714;23.732;2023-04-25T13:32:32;4.43;;;1.85;;
11328;SDS011;5719;42.714;23.732;2023-04-25T13:35:01;1.75;;;0.90;;
11328;SDS011;5719;42.714;23.732;2023-04-25T13:37:28;1.33;;;0.75;;
11328;SDS011;5719;42.714;23.732;2023-04-25T13:39:58;3.30;;;0.70;;
11328;SDS011;5719;42.714;23.732;2023-04-25T13:42:25;2.05;;;0.50;;
11328;SDS011;5719;42.714;23.732;2023-04-25T13:44:52;2.40;;;0.50;;
11328;SDS011;5719;42.714;23.732;2023-04-25T13:47:21;1.05;;;0.60;;
11328;SDS011;5719;42.714;23.732;2023-04-25T13:49:49;0.30;;;0.30;;
11328;SDS011;5719;42.714;23.732;2023-04-25T13:52:16;0.57;;;0.55;;
11328;SDS011;5719;42.714;23.732;2023-04-25T13:54:43;4.97;;;0.55;;
11328;SDS011;5719;42.714;23.732;2023-04-25T13:57:10;0.65;;;0.40;;
11328;SDS011;5719;42.714;23.732;2023-04-25T13:59:37;0.50;;;0.32;;
11328;SDS011;5719;42.714;23.732;2023-04-25T14:02:04;0.50;;;0.30;;
11328;SDS011;5719;42.714;23.732;2023-04-25T14:04:32;1.17;;;0.30;;
11328;SDS011;5719;42.714;23.732;2023-04-25T14:07:00;0.77;;;0.30;;
11328;SDS011;5719;42.714;23.732;2023-04-25T14:09:27;0.40;;;0.40;;
11328;SDS011;5719;42.714;23.732;2023-04-25T14:11:54;0.40;;;0.40;;
11328;SDS011;5719;42.714;23.732;2023-04-25T14:14:21;0.45;;;0.40;;
11328;SDS011;5719;42.714;23.732;2023-04-25T14:16:49;0.65;;;0.40;;
11328;SDS011;5719;42.714;23.732;2023-04-25T14:19:19;6.88;;;0.47;;
11328;SDS011;5719;42.714;23.732;2023-04-25T14:21:48;3.55;;;0.50;;
11328;SDS011;5719;42.714;23.732;2023-04-25T14:24:15;0.65;;;0.50;;
11328;SDS011;5719;42.714;23.732;2023-04-25T14:26:42;0.85;;;0.63;;
11328;SDS011;5719;42.714;23.732;2023-04-25T14:29:09;1.08;;;0.70;;
11328;SDS011;5719;42.714;23.732;2023-04-25T14:31:37;0.75;;;0.75;;
11328;SDS011;5719;42.714;23.732;2023-04-25T14:34:06;1.23;;;0.93;;
11328;SDS011;5719;42.714;23.732;2023-04-25T14:36:33;1.15;;;0.80;;
11328;SDS011;5719;42.714;23.732;2023-04-25T14:39:02;1.48;;;1.02;;
11328;SDS011;5719;42.714;23.732;2023-04-25T14:41:30;2.95;;;1.52;;
11328;SDS011;5719;42.714;23.732;2023-04-25T14:43:57;2.38;;;1.70;;
11328;SDS011;5719;42.714;23.732;2023-04-25T14:46:23;4.97;;;1.67;;
11328;SDS011;5719;42.714;23.732;2023-04-25T14:48:50;1.65;;;1.55;;
11328;SDS011;5719;42.714;23.732;2023-04-25T14:51:17;4.20;;;2.00;;
11328;SDS011;5719;42.714;23.732;2023-04-25T14:53:45;3.72;;;1.98;;